Time;durP1;ratioP1;P1;durP2;ratioP2;P2;SDS_P1;SDS_P2;PMS_P1;PMS_P2;Temp;Humidity;BMP_temperature;BMP_pressure;BME280_temperature;BME280_humidity;BME280_pressure;Samples;Min_cycle;Max_cycle;Signal;HPM_P1;HPM_P2
2022/12/31 00:01:56;;;;;;;2.20;1.13;;;14.10;99.20;;;14.65;66.54;98462.50;4951614;28;113981;-75
2022/12/31 00:04:23;;;;;;;1.20;0.80;;;14.20;99.20;;;14.65;66.74;98466.06;4958314;28;124144;-74
2022/12/31 00:06:49;;;;;;;1.10;1.00;;;14.20;99.20;;;14.66;66.56;98456.56;4968844;28;124236;-74
2022/12/31 00:09:16;;;;;;;2.13;1.10;;;14.20;99.20;;;14.68;66.62;98459.00;4963963;28;114656;-74
2022/12/31 00:11:42;;;;;;;1.10;0.90;;;14.20;99.20;;;14.69;66.67;98467.00;4952806;28;114695;-75
2022/12/31 00:14:09;;;;;;;1.40;0.90;;;14.40;99.20;;;14.73;66.58;98461.56;4953072;28;124028;-76
2022/12/31 00:16:39;;;;;;;1.10;0.87;;;14.30;99.10;;;14.74;66.53;98468.72;4955419;28;122873;-75
2022/12/31 00:19:08;;;;;;;1.10;1.00;;;14.30;99.10;;;14.76;66.37;98471.97;4965399;28;114699;-75
2022/12/31 00:21:36;;;;;;;1.50;1.10;;;14.30;99.10;;;14.77;66.46;98468.03;4961842;28;113712;-76
2022/12/31 00:24:04;;;;;;;1.10;1.00;;;14.30;99.10;;;14.77;66.09;98476.38;4959776;28;123787;-75
2022/12/31 00:26:33;;;;;;;1.20;1.00;;;14.30;99.00;;;14.78;66.39;98481.59;4966088;28;123225;-76
2022/12/31 00:29:00;;;;;;;1.40;1.10;;;14.30;99.00;;;14.79;66.33;98477.66;4958624;28;115175;-75
2022/12/31 00:31:34;;;;;;;5.30;1.00;;;14.30;99.00;;;14.80;66.20;98475.66;4966299;28;115174;-75
2022/12/31 00:34:01;;;;;;;1.10;0.97;;;14.30;99.00;;;14.82;66.18;98492.84;4967219;28;123105;-75
2022/12/31 00:36:36;;;;;;;0.90;0.80;;;14.30;99.00;;;14.83;66.32;98499.19;4969721;28;124767;-75
2022/12/31 00:39:07;;;;;;;1.17;0.90;;;14.30;99.00;;;14.81;66.17;98499.56;4966513;28;114650;-74
2022/12/31 00:41:34;;;;;;;1.50;0.87;;;14.30;99.00;;;14.82;66.30;98484.50;4967134;28;113981;-74
2022/12/31 00:44:00;;;;;;;1.97;0.90;;;14.50;99.00;;;14.83;66.21;98485.28;4961726;28;124347;-75
2022/12/31 00:46:27;;;;;;;1.03;0.90;;;14.40;99.00;;;14.84;66.24;98489.72;4958018;28;124249;-75
2022/12/31 00:48:54;;;;;;;7.23;1.23;;;14.60;99.00;;;14.85;66.48;98489.34;4968075;28;114047;-74
2022/12/31 00:51:25;;;;;;;1.57;1.10;;;14.40;98.90;;;14.88;66.00;98497.00;4960707;28;113334;-76
2022/12/31 00:53:52;;;;;;;1.83;1.00;;;14.40;98.90;;;14.90;66.23;98494.69;4986316;28;123998;-77
2022/12/31 00:56:22;;;;;;;1.40;1.10;;;14.40;98.90;;;14.91;66.11;98501.88;4969972;28;122685;-76
2022/12/31 00:58:49;;;;;;;1.27;1.10;;;14.40;98.90;;;14.94;66.03;98503.16;4970171;28;114291;-76
2022/12/31 01:01:23;;;;;;;1.17;0.90;;;14.50;98.90;;;14.96;65.99;98515.56;4967819;28;113958;-76
2022/12/31 01:03:56;;;;;;;2.00;1.30;;;14.40;98.90;;;14.98;66.27;98520.75;4966644;28;123886;-75
2022/12/31 01:06:23;;;;;;;1.10;0.90;;;14.50;98.90;;;14.99;65.78;98520.44;4967077;28;123694;-77
2022/12/31 01:08:51;;;;;;;1.57;1.20;;;14.50;98.90;;;15.01;65.91;98520.88;4967112;28;114390;-75
2022/12/31 01:11:19;;;;;;;2.90;1.10;;;14.50;98.80;;;15.06;65.78;98513.47;4970264;28;113292;-77
2022/12/31 01:13:49;;;;;;;2.27;0.90;;;14.60;98.80;;;15.08;65.51;98522.28;4986121;28;123987;-75
2022/12/31 01:16:19;;;;;;;1.20;0.90;;;14.60;98.70;;;15.11;65.66;98516.81;4970010;28;123932;-76
2022/12/31 01:18:45;;;;;;;3.67;1.07;;;14.60;98.70;;;15.16;65.53;98519.34;4966350;28;114341;-76
2022/12/31 01:21:14;;;;;;;1.23;0.90;;;14.70;99.00;;;15.20;65.43;98536.16;4967961;28;114967;-75
2022/12/31 01:23:41;;;;;;;1.93;0.90;;;14.70;98.60;;;15.23;65.40;98530.72;4967829;28;124115;-77
2022/12/31 01:26:11;;;;;;;1.10;1.00;;;14.80;98.60;;;15.25;65.22;98542.28;4967251;28;123633;-76
2022/12/31 01:28:38;;;;;;;1.23;1.03;;;14.90;98.60;;;15.30;65.09;98563.53;4966418;28;114315;-76
2022/12/31 01:31:15;;;;;;;1.77;1.00;;;14.80;98.50;;;15.34;64.97;98558.06;4969153;28;113024;-75
2022/12/31 01:33:43;;;;;;;3.80;0.97;;;14.80;98.40;;;15.37;65.04;98562.94;4965934;28;124039;-74
2022/12/31 01:36:23;;;;;;;2.73;1.30;;;14.90;98.30;;;15.40;64.67;98570.59;4965284;28;123841;-74
2022/12/31 01:38:49;;;;;;;1.03;0.93;;;14.90;98.20;;;15.43;64.58;98573.47;4966646;28;114002;-75
2022/12/31 01:41:20;;;;;;;1.40;0.90;;;15.00;98.20;;;15.45;64.43;98568.38;4965984;28;113774;-75
2022/12/31 01:43:54;;;;;;;2.70;1.13;;;15.00;98.10;;;15.49;64.17;98562.91;4964523;28;124079;-75
2022/12/31 01:46:26;;;;;;;1.23;1.10;;;15.10;98.00;;;15.52;64.25;98558.63;4985950;28;122526;-75
2022/12/31 01:49:00;;;;;;;1.73;1.00;;;15.10;98.00;;;15.54;63.93;98568.25;4967276;28;114244;-75
2022/12/31 01:51:32;;;;;;;1.20;0.93;;;15.10;97.90;;;15.57;63.71;98572.31;4952772;28;113277;-75
2022/12/31 01:54:00;;;;;;;2.40;0.90;;;15.10;97.80;;;15.59;63.80;98569.97;4966153;28;124533;-75
2022/12/31 01:56:27;;;;;;;1.10;1.00;;;15.20;97.70;;;15.61;64.14;98562.09;4959228;28;123627;-75
2022/12/31 01:58:55;;;;;;;1.33;1.10;;;15.30;97.70;;;15.65;63.46;98574.13;4969009;28;114475;-75
2022/12/31 02:01:29;;;;;;;1.40;1.10;;;15.20;97.60;;;15.67;63.26;98580.19;4969765;28;112706;-75
2022/12/31 02:03:56;;;;;;;1.73;0.90;;;15.30;97.50;;;15.67;63.09;98582.97;4980863;28;123507;-75
2022/12/31 02:06:37;;;;;;;1.23;1.00;;;15.30;97.40;;;15.71;63.13;98569.16;4968752;28;123850;-75
2022/12/31 02:09:04;;;;;;;1.93;0.97;;;15.30;97.30;;;15.73;63.19;98566.84;4964952;28;115229;-75
2022/12/31 02:11:35;;;;;;;1.77;1.27;;;15.30;97.60;;;15.76;62.92;98563.34;4966691;28;114809;-75
2022/12/31 02:14:18;;;;;;;1.40;1.00;;;15.30;97.20;;;15.78;62.49;98572.97;4973270;28;124579;-75
2022/12/31 02:17:14;;;;;;;1.10;1.00;;;15.30;97.10;;;15.79;62.60;98579.34;4967663;28;123612;-75
2022/12/31 02:20:23;;;;;;;4.20;1.07;;;15.30;97.00;;;15.79;62.47;98577.38;4970915;28;114695;-74
2022/12/31 02:23:37;;;;;;;1.90;1.03;;;15.40;97.00;;;15.81;62.05;98591.75;4983882;28;114060;-74
2022/12/31 02:26:55;;;;;;;1.60;0.90;;;15.40;96.90;;;15.80;62.00;98587.38;4963418;28;124103;-75
2022/12/31 02:29:46;;;;;;;1.10;0.97;;;15.40;96.80;;;15.82;62.17;98587.81;4972659;28;123582;-76
2022/12/31 02:32:53;;;;;;;1.67;1.10;;;15.40;96.80;;;15.84;61.95;98591.06;4973341;28;114331;-75
2022/12/31 02:35:51;;;;;;;1.63;0.93;;;15.40;96.70;;;15.89;61.87;98601.16;5003617;28;113070;-75
2022/12/31 02:38:41;;;;;;;1.10;1.00;;;15.50;96.70;;;15.90;61.61;98586.88;4971935;28;123881;-76
2022/12/31 02:44:38;;;;;;;1.97;1.13;;;15.50;96.60;;;15.93;61.27;98602.06;4974707;28;114800;-75
2022/12/31 02:47:07;;;;;;;2.37;1.17;;;15.50;96.40;;;15.95;61.22;98590.56;4904332;28;112867;-75
2022/12/31 02:50:17;;;;;;;1.10;0.90;;;15.50;96.40;;;15.95;61.25;98580.22;4963727;28;124947;-75
2022/12/31 02:53:08;;;;;;;1.00;0.90;;;15.50;96.30;;;15.98;60.96;98582.31;4979844;28;123888;-75
2022/12/31 02:56:08;;;;;;;1.60;1.10;;;15.60;96.30;;;15.96;60.77;98586.59;4962765;28;114218;-75
2022/12/31 03:02:12;;;;;;;1.60;1.10;;;15.50;96.00;;;15.96;60.44;98578.25;4971928;28;124888;-75
2022/12/31 03:04:54;;;;;;;1.40;1.30;;;15.50;95.90;;;15.96;60.38;98579.06;4957363;28;123901;-75
2022/12/31 03:07:26;;;;;;;2.90;0.80;;;15.50;95.90;;;15.97;60.14;98579.88;4954910;28;114395;-75
2022/12/31 03:09:53;;;;;;;2.17;1.10;;;15.50;95.80;;;15.99;60.15;98572.00;4969073;28;115024;-76
2022/12/31 03:15:21;;;;;;;1.10;0.90;;;15.60;95.70;;;16.02;59.81;98568.50;4985293;28;124150;-75
2022/12/31 03:18:00;;;;;;;1.20;1.10;;;15.60;95.60;;;16.03;59.67;98565.34;4951652;28;113713;-75
2022/12/31 03:23:34;;;;;;;1.10;1.00;;;15.60;95.50;;;16.06;59.43;98581.34;4972327;28;124623;-75
2022/12/31 03:26:09;;;;;;;3.13;1.20;;;15.60;95.40;;;16.08;59.35;98567.06;4965433;28;123896;-75
2022/12/31 03:28:46;;;;;;;1.20;1.00;;;15.60;95.30;;;16.11;59.34;98563.56;4969039;28;114426;-75
2022/12/31 03:31:13;;;;;;;1.33;1.13;;;15.70;95.30;;;16.14;59.51;98585.16;4964440;28;114034;-75
2022/12/31 03:33:40;;;;;;;1.67;0.90;;;15.70;95.30;;;16.18;59.14;98580.50;4969096;28;123938;-75
2022/12/31 03:36:11;;;;;;;2.03;1.10;;;15.70;95.20;;;16.21;59.29;98584.56;4969112;28;123856;-75
2022/12/31 03:38:38;;;;;;;1.10;1.00;;;15.80;95.20;;;16.24;59.32;98579.06;4965491;28;113962;-75
2022/12/31 03:41:05;;;;;;;1.20;1.00;;;15.80;95.20;;;16.28;59.19;98612.59;4962364;28;113641;-76
2022/12/31 03:43:32;;;;;;;0.90;0.80;;;15.80;95.10;;;16.32;59.01;98591.22;4969623;28;124343;-75
2022/12/31 03:46:00;;;;;;;1.27;1.10;;;16.10;95.30;;;16.36;59.00;98586.56;4968908;28;123881;-75
2022/12/31 03:48:26;;;;;;;1.20;0.97;;;15.90;95.20;;;16.41;58.99;98577.13;4967229;28;114269;-75
2022/12/31 03:50:53;;;;;;;1.60;1.10;;;16.00;95.20;;;16.43;59.26;98589.53;4966740;28;114290;-75
2022/12/31 03:53:19;;;;;;;1.23;0.90;;;16.00;95.10;;;16.46;59.08;98597.19;4968824;28;124359;-75
2022/12/31 03:55:53;;;;;;;1.13;0.80;;;16.10;95.20;;;16.50;58.86;98600.09;5003079;28;123064;-76
2022/12/31 03:58:21;;;;;;;1.10;0.90;;;16.10;95.20;;;16.50;59.08;98598.13;4970428;28;115261;-75
2022/12/31 04:00:48;;;;;;;1.00;0.90;;;16.10;95.20;;;16.54;59.15;98598.19;4969247;28;114755;-75
2022/12/31 04:03:14;;;;;;;1.10;0.97;;;16.10;95.10;;;16.57;58.86;98594.69;4969601;28;123911;-75
2022/12/31 04:05:41;;;;;;;1.20;0.90;;;16.20;95.10;;;16.61;59.02;98601.19;4969096;28;123748;-77
2022/12/31 04:08:08;;;;;;;4.30;1.00;;;16.20;95.10;;;16.64;58.99;98605.25;4970806;28;113904;-75
2022/12/31 04:10:34;;;;;;;1.50;1.00;;;16.20;95.10;;;16.67;58.99;98596.16;4951119;28;112939;-76
2022/12/31 04:13:03;;;;;;;1.30;0.90;;;16.30;95.10;;;16.71;58.71;98611.00;4960092;28;123793;-76
2022/12/31 04:15:29;;;;;;;2.63;0.90;;;16.30;95.00;;;16.74;58.69;98596.34;4970817;28;123848;-76
2022/12/31 04:17:56;;;;;;;1.60;0.90;;;16.30;94.90;;;16.78;58.47;98595.28;4969235;28;114357;-75
2022/12/31 04:20:22;;;;;;;0.90;0.80;;;16.30;94.90;;;16.80;58.44;98605.31;5003767;28;113033;-75
2022/12/31 04:22:49;;;;;;;1.20;0.90;;;16.40;94.90;;;16.84;58.32;98622.94;4968399;28;123166;-75
2022/12/31 04:25:15;;;;;;;1.73;1.00;;;16.40;94.80;;;16.87;58.33;98599.88;4968487;28;123871;-75
2022/12/31 04:27:42;;;;;;;4.10;0.90;;;16.40;94.80;;;16.90;58.46;98610.31;4970202;28;113905;-75
2022/12/31 04:30:11;;;;;;;1.37;0.90;;;16.90;95.00;;;16.91;58.28;98596.03;4968578;28;113965;-75
2022/12/31 04:32:38;;;;;;;1.20;1.03;;;16.50;94.80;;;16.95;57.96;98612.84;4984109;28;124646;-75
2022/12/31 04:35:05;;;;;;;1.27;0.90;;;16.50;94.70;;;16.96;57.98;98594.97;4963079;28;123819;-75
2022/12/31 04:37:31;;;;;;;1.00;0.90;;;16.60;94.70;;;16.99;58.03;98613.75;4965500;28;113400;-75
2022/12/31 04:39:58;;;;;;;1.30;1.00;;;16.60;94.70;;;17.02;57.95;98596.28;4969024;28;113844;-75
2022/12/31 04:42:24;;;;;;;1.30;1.03;;;16.60;94.70;;;17.02;57.95;98612.25;4968692;28;124831;-75
2022/12/31 04:44:51;;;;;;;1.23;0.97;;;16.60;94.60;;;17.00;58.08;98615.38;4968918;28;123745;-75
2022/12/31 04:47:18;;;;;;;1.30;0.80;;;16.60;94.60;;;17.02;58.08;98617.81;4964230;28;115220;-76
2022/12/31 04:49:44;;;;;;;2.13;0.90;;;16.60;94.60;;;17.02;57.94;98635.38;4963584;28;115585;-75
2022/12/31 04:52:11;;;;;;;1.40;0.90;;;16.70;94.60;;;17.04;57.98;98647.00;4971046;28;123744;-75
2022/12/31 04:54:37;;;;;;;1.30;0.90;;;16.60;94.60;;;17.05;57.82;98631.84;5003478;28;123176;-76
2022/12/31 04:57:03;;;;;;;1.10;1.00;;;16.60;94.60;;;17.07;58.01;98629.53;4969353;28;114525;-75
2022/12/31 04:59:30;;;;;;;2.80;0.93;;;16.60;94.50;;;17.08;57.85;98647.88;4971828;28;113934;-75
2022/12/31 05:01:56;;;;;;;1.50;1.00;;;16.70;94.60;;;17.10;57.96;98662.31;4969397;28;123290;-75
2022/12/31 05:04:23;;;;;;;1.27;0.77;;;16.70;94.50;;;17.10;57.95;98645.56;4967999;28;123744;-75
2022/12/31 05:06:49;;;;;;;1.10;0.90;;;16.70;94.60;;;17.13;57.80;98638.44;4968511;28;114218;-76
2022/12/31 05:09:16;;;;;;;2.50;1.00;;;16.70;94.50;;;17.16;57.90;98641.31;4968734;28;113764;-75
2022/12/31 05:11:42;;;;;;;1.40;0.80;;;16.70;94.50;;;17.18;57.91;98644.56;5002235;28;123776;-75
2022/12/31 05:14:10;;;;;;;1.87;0.83;;;16.80;94.60;;;17.23;57.79;98643.50;4968065;28;122924;-76
2022/12/31 05:16:36;;;;;;;1.30;1.00;;;16.90;94.60;;;17.23;57.90;98663.84;4966424;28;114319;-75
2022/12/31 05:19:05;;;;;;;3.53;1.10;;;16.80;94.50;;;17.21;57.75;98666.16;4967934;28;113951;-75
2022/12/31 05:21:31;;;;;;;0.93;0.80;;;16.80;94.50;;;17.20;57.83;98667.34;4966836;28;124489;-75
2022/12/31 05:23:58;;;;;;;1.30;1.00;;;16.80;94.50;;;17.20;57.69;98666.53;4968929;28;123215;-75
2022/12/31 05:26:24;;;;;;;1.07;0.90;;;16.80;94.50;;;17.17;57.86;98676.44;4968313;28;114135;-76
2022/12/31 05:28:51;;;;;;;1.57;0.90;;;16.80;94.50;;;17.15;57.75;98662.03;4965395;28;113970;-74
2022/12/31 05:31:17;;;;;;;1.30;1.20;;;16.70;94.50;;;17.14;57.98;98654.84;5002431;28;123957;-75
2022/12/31 05:33:44;;;;;;;1.37;1.00;;;16.70;94.50;;;17.13;57.95;98650.41;4963201;28;123676;-74
2022/12/31 05:36:10;;;;;;;1.00;0.90;;;16.70;94.50;;;17.12;58.10;98657.19;4984061;28;116329;-75
2022/12/31 05:38:37;;;;;;;1.57;1.00;;;16.70;94.50;;;17.12;58.15;98662.75;4968056;28;115527;-75
2022/12/31 05:41:06;;;;;;;1.00;0.80;;;16.70;94.60;;;17.10;58.01;98653.13;4970740;28;124538;-78
2022/12/31 05:43:33;;;;;;;0.90;0.80;;;16.80;94.60;;;17.08;58.12;98666.63;4966571;28;123834;-80
2022/12/31 05:46:02;;;;;;;2.40;1.07;;;16.70;94.60;;;17.06;58.03;98669.78;4962536;28;113846;-74
2022/12/31 05:48:29;;;;;;;1.10;0.97;;;16.60;94.60;;;17.05;58.11;98662.56;4965936;28;113767;-76
2022/12/31 05:50:56;;;;;;;1.53;1.00;;;16.60;94.60;;;17.07;58.26;98676.19;4982174;28;124139;-75
2022/12/31 05:53:22;;;;;;;1.43;0.70;;;16.60;94.60;;;17.05;58.04;98678.50;4967246;28;123765;-75
2022/12/31 05:55:49;;;;;;;1.30;0.90;;;16.60;94.60;;;17.02;58.11;98688.41;4968558;28;114322;-74
2022/12/31 05:58:15;;;;;;;1.43;0.93;;;16.60;94.60;;;17.02;58.08;98694.00;4970611;28;114038;-74
2022/12/31 06:00:43;;;;;;;1.20;0.90;;;16.60;94.60;;;17.02;58.23;98691.19;4965816;28;124693;-75
2022/12/31 06:03:09;;;;;;;1.00;0.80;;;16.60;94.70;;;17.03;58.43;98695.59;4967766;28;124194;-74
2022/12/31 06:05:40;;;;;;;3.73;0.90;;;16.60;94.70;;;17.03;58.31;98701.19;4967545;28;114287;-74
2022/12/31 06:08:07;;;;;;;1.10;1.00;;;16.60;94.70;;;17.02;58.44;98696.78;4965666;28;114228;-74
2022/12/31 06:10:33;;;;;;;1.57;0.90;;;16.60;94.70;;;16.98;58.31;98702.28;5001930;28;123102;-74
2022/12/31 06:13:00;;;;;;;1.20;0.90;;;17.90;95.30;;;16.96;58.53;98717.75;4955766;28;123865;-76
2022/12/31 06:15:26;;;;;;;1.67;0.97;;;16.50;95.00;;;16.93;58.51;98726.84;4961191;28;113659;-74
2022/12/31 06:17:53;;;;;;;1.43;1.00;;;16.50;94.80;;;16.90;58.50;98727.53;4948752;28;112861;-74
2022/12/31 06:20:19;;;;;;;1.50;1.07;;;16.50;94.80;;;16.87;58.62;98725.47;4952476;28;123151;-74
2022/12/31 06:22:46;;;;;;;1.20;1.00;;;16.40;94.90;;;16.84;58.88;98717.81;4962851;28;123590;-74
2022/12/31 06:25:12;;;;;;;2.47;0.90;;;16.40;95.00;;;16.82;58.86;98709.81;4957584;28;114628;-74
2022/12/31 06:27:39;;;;;;;1.00;0.90;;;16.40;95.00;;;16.81;59.09;98718.53;4952674;28;114588;-74
2022/12/31 06:30:06;;;;;;;9.53;3.13;;;16.40;95.00;;;16.78;58.98;98723.63;4966992;28;123902;-74
2022/12/31 06:32:33;;;;;;;1.63;1.00;;;16.30;95.00;;;16.76;59.15;98722.34;4970369;28;123301;-74
2022/12/31 06:35:00;;;;;;;1.40;0.90;;;16.30;95.00;;;16.75;59.15;98721.53;4967211;28;114334;-75
2022/12/31 06:37:27;;;;;;;2.40;0.90;;;16.20;95.00;;;16.75;59.09;98727.13;4950116;28;112998;-74
2022/12/31 06:39:53;;;;;;;1.20;0.80;;;16.30;95.00;;;16.73;59.16;98729.44;4968281;28;124076;-74
2022/12/31 06:42:19;;;;;;;1.40;0.90;;;16.30;95.10;;;16.72;59.11;98736.19;4967695;28;124035;-75
2022/12/31 06:44:46;;;;;;;0.90;0.80;;;16.30;95.10;;;16.71;59.26;98740.16;4966243;28;114213;-74
2022/12/31 06:47:12;;;;;;;2.90;0.93;;;16.30;95.10;;;16.68;59.34;98723.31;4966346;28;113386;-74
2022/12/31 06:49:39;;;;;;;0.90;0.80;;;16.40;95.10;;;16.67;59.18;98728.09;4966751;28;123858;-76
2022/12/31 06:52:06;;;;;;;1.27;0.90;;;16.30;95.10;;;16.68;59.17;98729.69;4967041;28;123883;-74
2022/12/31 06:54:33;;;;;;;1.83;0.87;;;16.30;95.10;;;16.69;59.30;98728.53;5002255;28;113806;-74
2022/12/31 06:57:00;;;;;;;1.10;0.90;;;16.30;95.40;;;16.68;59.11;98710.16;4969182;28;113774;-74
2022/12/31 06:59:28;;;;;;;1.33;0.93;;;16.30;95.10;;;16.69;59.03;98708.22;4973108;28;124626;-75
2022/12/31 07:02:08;;;;;;;1.97;0.90;;;16.30;95.00;;;16.69;59.13;98700.66;4970634;28;123118;-74
2022/12/31 07:05:09;;;;;;;1.10;1.00;;;16.30;95.00;;;16.67;59.19;98707.75;4968967;28;114307;-75
2022/12/31 07:08:07;;;;;;;1.07;0.90;;;16.30;95.00;;;16.66;59.10;98718.09;4969300;28;114246;-75
2022/12/31 07:10:52;;;;;;;1.20;0.90;;;16.30;95.00;;;16.66;59.10;98723.69;5001294;28;124521;-74
2022/12/31 07:14:00;;;;;;;1.97;0.90;;;16.30;95.00;;;16.63;59.09;98724.41;4965791;28;124244;-74
2022/12/31 07:16:39;;;;;;;1.23;0.80;;;16.30;95.00;;;16.65;59.11;98733.19;4957233;28;114247;-75
2022/12/31 07:19:22;;;;;;;1.50;0.80;;;16.30;95.00;;;16.65;59.25;98724.81;4951336;28;113684;-74
2022/12/31 07:21:52;;;;;;;1.80;1.00;;;16.30;95.00;;;16.65;59.17;98727.63;4962474;28;124517;-73
2022/12/31 07:24:19;;;;;;;1.20;0.90;;;16.30;95.00;;;16.67;59.00;98736.44;4958560;28;124271;-75
2022/12/31 07:27:19;;;;;;;1.40;1.00;;;16.30;95.00;;;16.69;59.02;98745.28;4962958;28;115719;-75
2022/12/31 07:30:00;;;;;;;1.40;0.90;;;16.30;95.00;;;16.69;58.70;98741.69;4962541;28;114466;-75
2022/12/31 07:33:13;;;;;;;1.23;1.00;;;16.30;94.90;;;16.70;58.89;98749.69;4950054;28;123734;-74
2022/12/31 07:36:04;;;;;;;1.17;0.90;;;16.30;94.80;;;16.71;58.89;98758.88;4954927;28;123484;-75
2022/12/31 07:38:39;;;;;;;1.80;1.00;;;16.30;94.80;;;16.74;58.67;98752.59;4967539;28;114185;-75
2022/12/31 07:41:37;;;;;;;4.40;1.23;;;16.30;94.80;;;16.75;58.50;98757.81;4966059;28;113948;-75
2022/12/31 07:44:47;;;;;;;1.10;0.80;;;16.40;94.70;;;16.76;58.62;98756.66;4960385;28;125172;-74
2022/12/31 07:47:26;;;;;;;1.10;1.00;;;16.40;94.60;;;16.82;58.12;98759.19;4951995;28;122694;-75
2022/12/31 07:49:54;;;;;;;2.40;1.00;;;16.40;94.50;;;16.84;58.28;98776.41;4954384;28;114108;-75
2022/12/31 07:52:21;;;;;;;4.70;1.10;;;16.50;94.50;;;16.88;57.85;98752.22;4955065;28;113626;-76
2022/12/31 07:54:48;;;;;;;1.10;1.00;;;16.50;94.40;;;16.89;57.77;98753.84;4955297;28;123687;-76
2022/12/31 07:57:18;;;;;;;1.53;1.10;;;16.50;94.40;;;16.92;57.74;98762.28;4989932;28;123689;-75
2022/12/31 08:00:11;;;;;;;6.20;1.00;;;16.50;94.30;;;16.94;57.48;98739.63;4949553;28;114414;-75
2022/12/31 08:03:33;;;;;;;2.30;1.20;;;16.60;94.20;;;16.97;57.46;98761.22;4957513;28;113591;-78
2022/12/31 08:06:08;;;;;;;1.53;1.17;;;16.60;94.10;;;16.99;57.24;98750.53;4982261;28;123101;-77
2022/12/31 08:09:25;;;;;;;1.30;0.97;;;16.60;94.10;;;17.01;57.27;98751.00;4950022;28;124421;-75
2022/12/31 08:12:00;;;;;;;2.37;1.77;;;16.60;93.90;;;17.05;57.07;98777.00;4918779;28;115000;-75
2022/12/31 08:14:28;;;;;;;1.07;0.90;;;16.60;93.90;;;17.08;56.82;98772.69;4947544;28;115316;-76
2022/12/31 08:16:58;;;;;;;1.13;0.90;;;16.70;93.90;;;17.11;56.69;98783.94;4952491;28;124162;-75
2022/12/31 08:19:27;;;;;;;2.93;0.90;;;16.70;93.80;;;17.13;56.55;98767.66;4961887;28;122844;-74
2022/12/31 08:22:02;;;;;;;1.20;0.77;;;16.70;93.70;;;17.18;56.31;98775.78;4968419;28;115014;-75
2022/12/31 08:25:33;;;;;;;1.20;1.00;;;16.70;93.70;;;17.18;56.25;98770.19;4970203;28;113819;-75
2022/12/31 08:28:31;;;;;;;0.93;0.80;;;16.80;93.60;;;17.20;56.11;98773.44;4970189;28;124064;-75
2022/12/31 08:31:06;;;;;;;1.30;1.00;;;16.80;93.50;;;17.23;55.88;98758.78;4953643;28;122674;-75
2022/12/31 08:33:53;;;;;;;1.93;1.37;;;16.80;93.40;;;17.25;55.90;98766.81;4967106;28;114494;-74
2022/12/31 08:37:04;;;;;;;1.20;1.00;;;16.90;93.30;;;17.27;55.72;98758.06;4969002;28;113364;-76
2022/12/31 08:39:57;;;;;;;1.40;0.90;;;16.90;93.20;;;17.30;55.58;98774.09;4967810;28;123122;-75
2022/12/31 08:42:41;;;;;;;3.20;1.10;;;16.90;93.20;;;17.33;55.58;98759.41;4959281;28;124299;-75
2022/12/31 08:45:27;;;;;;;1.60;1.00;;;16.90;93.10;;;17.36;55.59;98769.88;4947857;28;113889;-75
2022/12/31 08:48:38;;;;;;;1.07;0.90;;;17.00;93.10;;;17.37;55.26;98763.13;4967341;28;113836;-75
2022/12/31 08:51:08;;;;;;;2.77;1.03;;;17.00;93.00;;;17.41;55.42;98775.22;4969010;28;123473;-75
2022/12/31 08:53:35;;;;;;;1.83;1.33;;;17.00;93.10;;;17.44;55.11;98780.06;5002881;28;122870;-75
2022/12/31 08:56:15;;;;;;;1.47;1.03;;;17.10;93.00;;;17.47;54.98;98795.31;4999221;28;113069;-75
2022/12/31 08:59:22;;;;;;;1.40;0.90;;;17.10;92.90;;;17.47;55.00;98807.28;4958975;28;114064;-74
2022/12/31 09:02:06;;;;;;;1.83;1.00;;;17.10;92.80;;;17.49;54.93;98802.16;4954263;28;125978;-74
2022/12/31 09:05:16;;;;;;;1.47;1.00;;;17.10;92.80;;;17.50;54.80;98812.16;4951349;28;123934;-74
2022/12/31 09:07:54;;;;;;;1.20;1.00;;;17.10;92.70;;;17.55;54.78;98802.69;4954041;28;115375;-73
2022/12/31 09:11:03;;;;;;;1.57;1.03;;;17.20;92.80;;;17.58;54.56;98802.78;4950996;28;115316;-73
2022/12/31 09:14:00;;;;;;;1.00;0.80;;;17.20;92.60;;;17.62;54.62;98808.47;4894397;28;124390;-74
2022/12/31 09:16:44;;;;;;;1.33;1.13;;;17.20;92.60;;;17.65;54.35;98805.78;4949372;28;123919;-73
2022/12/31 09:19:30;;;;;;;1.10;0.90;;;17.30;92.60;;;17.73;54.40;98815.16;4951115;28;114126;-73
2022/12/31 09:21:57;;;;;;;1.70;1.00;;;17.30;92.50;;;17.77;54.04;98820.84;4933214;28;113930;-74
2022/12/31 09:24:24;;;;;;;1.67;1.00;;;17.40;92.30;;;17.82;53.82;98812.22;4928718;28;123170;-77
2022/12/31 09:27:13;;;;;;;1.90;1.20;;;17.40;92.20;;;17.88;53.68;98821.94;4880333;28;123367;-72
2022/12/31 09:30:04;;;;;;;1.40;1.10;;;19.00;92.90;;;17.90;53.45;98816.00;4893009;28;114035;-73
2022/12/31 09:32:53;;;;;;;1.43;1.07;;;17.50;92.10;;;17.95;53.30;98810.16;4892789;28;114280;-80
2022/12/31 09:35:53;;;;;;;1.37;0.90;;;17.50;92.00;;;17.99;53.37;98811.84;4883504;28;123935;-75
2022/12/31 09:38:36;;;;;;;1.40;0.93;;;17.60;91.90;;;18.05;53.08;98818.78;4907375;28;123895;-76
2022/12/31 09:41:47;;;;;;;1.20;1.10;;;17.60;91.90;;;18.11;53.12;98813.72;4906710;28;114075;-74
2022/12/31 09:44:16;;;;;;;2.17;1.20;;;17.70;91.80;;;18.17;52.56;98819.88;4905136;28;113930;-74
2022/12/31 09:47:44;;;;;;;1.13;1.00;;;17.70;91.70;;;18.21;52.59;98829.94;4888979;28;124189;-75
2022/12/31 09:50:36;;;;;;;4.40;1.20;;;17.80;91.50;;;18.29;51.97;98834.53;4907891;28;124225;-75
2022/12/31 09:53:45;;;;;;;1.30;1.20;;;17.90;91.40;;;18.36;51.62;98831.09;4892900;28;113644;-72
2022/12/31 09:56:34;;;;;;;2.50;0.93;;;17.90;91.00;;;18.42;51.48;98829.63;4877595;28;112754;-74
2022/12/31 09:59:05;;;;;;;1.47;1.00;;;18.00;91.00;;;18.50;51.11;98825.81;4939391;28;124447;-74
2022/12/31 10:01:40;;;;;;;1.20;0.90;;;18.10;90.90;;;18.59;50.91;98813.63;4957655;28;123860;-74
2022/12/31 10:04:53;;;;;;;1.47;1.00;;;18.20;90.80;;;18.67;50.42;98804.19;4976522;28;114689;-74
2022/12/31 10:08:00;;;;;;;1.40;0.87;;;18.30;90.50;;;18.73;50.09;98816.75;4964159;28;114963;-74
2022/12/31 10:10:56;;;;;;;1.67;1.10;;;18.30;90.30;;;18.80;49.84;98816.13;4965549;28;124006;-75
2022/12/31 10:13:39;;;;;;;1.90;0.93;;;18.40;90.10;;;18.87;49.84;98814.28;4916432;28;122832;-74
2022/12/31 10:16:23;;;;;;;1.13;0.80;;;18.50;90.10;;;18.94;49.36;98822.84;4966513;28;114212;-72
2022/12/31 10:19:12;;;;;;;2.60;1.10;;;18.50;89.90;;;19.01;49.26;98810.16;4995611;28;113145;-74
2022/12/31 10:22:04;;;;;;;1.40;1.00;;;18.60;89.60;;;19.05;49.20;98802.63;4965981;28;123898;-72
2022/12/31 10:24:39;;;;;;;1.40;1.20;;;18.70;89.30;;;19.11;48.91;98799.16;4925899;28;123329;-75
2022/12/31 10:27:18;;;;;;;1.23;1.00;;;18.70;89.10;;;19.17;48.54;98792.09;4965940;28;114307;-75
2022/12/31 10:29:53;;;;;;;1.37;1.00;;;18.70;89.00;;;19.21;48.69;98794.97;4966094;28;113989;-71
2022/12/31 10:32:25;;;;;;;1.70;0.97;;;18.80;88.70;;;19.27;48.37;98804.69;4966543;28;124046;-72
2022/12/31 10:35:27;;;;;;;1.87;1.27;;;18.80;88.20;;;19.31;48.39;98802.75;4970356;28;123865;-82
2022/12/31 10:38:15;;;;;;;1.40;0.90;;;18.90;88.50;;;19.39;48.26;98812.91;4968793;28;114137;-72
2022/12/31 10:41:09;;;;;;;2.70;1.20;;;19.00;88.10;;;19.45;47.92;98801.41;4969006;28;114065;-73
2022/12/31 10:44:12;;;;;;;1.00;0.90;;;19.00;88.00;;;19.52;47.97;98801.53;4970194;28;123907;-85
2022/12/31 10:46:49;;;;;;;1.17;0.80;;;19.10;87.60;;;19.57;47.82;98792.84;4967205;28;123735;-74
2022/12/31 10:49:25;;;;;;;1.73;0.90;;;19.20;87.60;;;19.66;47.52;98773.78;4959771;28;114265;-74
2022/12/31 10:52:09;;;;;;;1.00;0.90;;;19.20;87.60;;;19.73;47.17;98773.94;4969464;28;113627;-74
2022/12/31 10:55:11;;;;;;;1.30;0.90;;;19.30;87.00;;;19.81;46.90;98784.06;4962052;28;123968;-72
2022/12/31 10:58:39;;;;;;;1.00;0.80;;;19.30;86.50;;;19.85;46.68;98798.97;4970165;28;123792;-73
2022/12/31 11:01:55;;;;;;;2.07;1.10;;;19.50;85.80;;;19.93;46.18;98771.84;4998190;28;114875;-73
2022/12/31 11:04:43;;;;;;;1.40;1.10;;;19.50;85.70;;;20.04;46.20;98772.00;4950562;28;113578;-73
2022/12/31 11:08:06;;;;;;;2.00;1.30;;;19.60;85.30;;;20.11;46.22;98800.19;4969690;28;123833;-73